Edwards, MS (39066)

10:44 AM CST on December 08, 2016 (GMT -0600)
Raymond | | Change Station

Elev 249 ft 32.24 °N, 90.53 °W | Updated 3 seconds ago

Mostly Cloudy
Mostly Cloudy
45.5 °F
Feels Like 46 °F
N
0.0
Wind Variable Wind from East
Gusts 0.0 mph

Today
High -- | Low -- °F
--% Chance of Precip.
Yesterday
High -- | Low -- °F
Precip. -- in
Pressure 30.47 in
Visibility 10.0 miles
Clouds Scattered Clouds 5000 ft
Windchill 46 °F
Dew Point 30 °F
Humidity 54%
Rainfall 0.00 in
Snow Depth Not available.
6:51 AM 4:57 PM
Waxing Gibbous, 65% visible
METAR KJVW 081635Z AUTO 02007G16KT 350V070 10SM SCT050 07/M00 A3047 RMK AO2
Pressure 30.47 in
Visibility 10.0 miles
Clouds Scattered Clouds 5000 ft
Windchill 46 °F
Dew Point 30 °F
Humidity 54%
Rainfall 0.00 in
Snow Depth Not available.
6:51 AM 4:57 PM
Waxing Gibbous, 65% visible
METAR KJVW 081635Z AUTO 02007G16KT 350V070 10SM SCT050 07/M00 A3047 RMK AO2

10-Day Weather Forecast

Almanac

Astronomy

Dec. 08, 2016 Rise Set
Actual Time
Civil Twilight
Nautical Twilight
Astronomical Twilight
Moon
Length of Visible Light
Length of Day
Tomorrow will be .
, % of the Moon is Illuminated

Today's Extremes

State Highs State Lows

Community

WunderPhotos

Upload Photos

1,956,274 photos uploaded!

WunderBlog® & News

Nearby

Air Quality

  Air Quality AQ Index Pollutant
Not available.

Snow Depth

Station Depth Elevation

Earthquake Activity

City Distance Mag. Time & Date
Minimum magnitude displayed is 2.5.

Coastal Water Temperatures

Place Temperature

Stations

Nearby Weather Stations

Station Location Temp. Windchill Dew Point Humidity Wind Precip. Elev Updated Type
                   

Watches & Warnings

There are currently no watches in effect.